sensor_id;sensor_type;location;lat;lon;timestamp;P1;durP1;ratioP1;P2;durP2;ratioP2
58669;SDS011;44439;47.924;10.198;2022-12-07T00:03:52;12.55;;;9.40;;
58669;SDS011;44439;47.924;10.198;2022-12-07T00:06:39;11.85;;;9.48;;
58669;SDS011;44439;47.924;10.198;2022-12-07T00:09:25;12.65;;;9.73;;
58669;SDS011;44439;47.924;10.198;2022-12-07T00:12:10;11.18;;;9.85;;
58669;SDS011;44439;47.924;10.198;2022-12-07T00:14:56;12.35;;;10.57;;
58669;SDS011;44439;47.924;10.198;2022-12-07T00:17:41;13.18;;;10.48;;
58669;SDS011;44439;47.924;10.198;2022-12-07T00:20:27;14.15;;;10.98;;
58669;SDS011;44439;47.924;10.198;2022-12-07T00:23:12;12.98;;;10.02;;
58669;SDS011;44439;47.924;10.198;2022-12-07T00:26:05;15.18;;;10.57;;
58669;SDS011;44439;47.924;10.198;2022-12-07T00:28:51;12.63;;;9.60;;
58669;SDS011;44439;47.924;10.198;2022-12-07T00:31:37;13.63;;;10.68;;
58669;SDS011;44439;47.924;10.198;2022-12-07T00:34:26;16.23;;;10.10;;
58669;SDS011;44439;47.924;10.198;2022-12-07T00:37:11;14.05;;;11.13;;
58669;SDS011;44439;47.924;10.198;2022-12-07T00:39:57;14.05;;;10.52;;
58669;SDS011;44439;47.924;10.198;2022-12-07T00:42:43;15.23;;;10.00;;
58669;SDS011;44439;47.924;10.198;2022-12-07T00:45:29;14.30;;;10.63;;
58669;SDS011;44439;47.924;10.198;2022-12-07T00:48:14;15.88;;;11.13;;
58669;SDS011;44439;47.924;10.198;2022-12-07T00:51:00;17.30;;;12.07;;
58669;SDS011;44439;47.924;10.198;2022-12-07T00:53:45;14.27;;;11.40;;
58669;SDS011;44439;47.924;10.198;2022-12-07T00:56:31;15.02;;;11.32;;
58669;SDS011;44439;47.924;10.198;2022-12-07T00:59:17;16.05;;;11.50;;
58669;SDS011;44439;47.924;10.198;2022-12-07T01:02:02;17.23;;;11.30;;
58669;SDS011;44439;47.924;10.198;2022-12-07T01:04:48;12.85;;;10.40;;
58669;SDS011;44439;47.924;10.198;2022-12-07T01:07:33;14.50;;;11.38;;
58669;SDS011;44439;47.924;10.198;2022-12-07T01:10:19;14.32;;;11.82;;
58669;SDS011;44439;47.924;10.198;2022-12-07T01:13:04;15.75;;;12.35;;
58669;SDS011;44439;47.924;10.198;2022-12-07T01:15:50;17.20;;;12.45;;
58669;SDS011;44439;47.924;10.198;2022-12-07T01:18:36;16.27;;;11.73;;
58669;SDS011;44439;47.924;10.198;2022-12-07T01:21:23;15.73;;;12.02;;
58669;SDS011;44439;47.924;10.198;2022-12-07T01:24:09;17.00;;;12.18;;
58669;SDS011;44439;47.924;10.198;2022-12-07T01:26:55;17.63;;;12.93;;
58669;SDS011;44439;47.924;10.198;2022-12-07T01:29:41;15.35;;;12.05;;
58669;SDS011;44439;47.924;10.198;2022-12-07T01:32:27;18.05;;;13.05;;
58669;SDS011;44439;47.924;10.198;2022-12-07T01:35:12;19.48;;;14.68;;
58669;SDS011;44439;47.924;10.198;2022-12-07T01:37:58;21.83;;;15.68;;
58669;SDS011;44439;47.924;10.198;2022-12-07T01:40:43;23.25;;;15.65;;
58669;SDS011;44439;47.924;10.198;2022-12-07T01:43:29;21.23;;;14.88;;
58669;SDS011;44439;47.924;10.198;2022-12-07T01:46:15;21.35;;;15.73;;
58669;SDS011;44439;47.924;10.198;2022-12-07T01:49:01;21.58;;;15.73;;
58669;SDS011;44439;47.924;10.198;2022-12-07T01:51:47;24.98;;;16.75;;
58669;SDS011;44439;47.924;10.198;2022-12-07T01:54:33;21.90;;;15.50;;
58669;SDS011;44439;47.924;10.198;2022-12-07T01:57:19;30.83;;;19.67;;
58669;SDS011;44439;47.924;10.198;2022-12-07T02:00:06;27.85;;;18.52;;
58669;SDS011;44439;47.924;10.198;2022-12-07T02:03:05;28.75;;;19.35;;
58669;SDS011;44439;47.924;10.198;2022-12-07T02:08:38;28.20;;;18.25;;
58669;SDS011;44439;47.924;10.198;2022-12-07T02:11:23;31.27;;;20.45;;
58669;SDS011;44439;47.924;10.198;2022-12-07T02:14:09;31.10;;;19.90;;
58669;SDS011;44439;47.924;10.198;2022-12-07T02:17:02;31.67;;;19.17;;
58669;SDS011;44439;47.924;10.198;2022-12-07T02:20:16;31.25;;;19.48;;
58669;SDS011;44439;47.924;10.198;2022-12-07T02:23:10;28.48;;;18.95;;
58669;SDS011;44439;47.924;10.198;2022-12-07T02:26:02;27.13;;;18.42;;
58669;SDS011;44439;47.924;10.198;2022-12-07T02:29:10;29.52;;;18.88;;
58669;SDS011;44439;47.924;10.198;2022-12-07T02:34:58;25.75;;;18.17;;
58669;SDS011;44439;47.924;10.198;2022-12-07T02:41:00;22.05;;;15.75;;
58669;SDS011;44439;47.924;10.198;2022-12-07T02:43:45;14.02;;;10.43;;
58669;SDS011;44439;47.924;10.198;2022-12-07T02:46:36;11.95;;;8.48;;
58669;SDS011;44439;47.924;10.198;2022-12-07T02:49:24;10.30;;;7.85;;
58669;SDS011;44439;47.924;10.198;2022-12-07T02:52:10;10.63;;;7.60;;
58669;SDS011;44439;47.924;10.198;2022-12-07T02:54:56;10.00;;;7.25;;
58669;SDS011;44439;47.924;10.198;2022-12-07T02:57:45;9.55;;;7.30;;
58669;SDS011;44439;47.924;10.198;2022-12-07T03:00:43;9.95;;;7.38;;
58669;SDS011;44439;47.924;10.198;2022-12-07T03:03:29;11.20;;;8.18;;
58669;SDS011;44439;47.924;10.198;2022-12-07T03:06:16;10.93;;;8.00;;
58669;SDS011;44439;47.924;10.198;2022-12-07T03:09:09;11.20;;;7.18;;
58669;SDS011;44439;47.924;10.198;2022-12-07T03:12:12;9.50;;;7.40;;
58669;SDS011;44439;47.924;10.198;2022-12-07T03:15:10;11.82;;;7.95;;
58669;SDS011;44439;47.924;10.198;2022-12-07T03:17:57;11.82;;;7.35;;
58669;SDS011;44439;47.924;10.198;2022-12-07T03:20:44;9.07;;;6.95;;
58669;SDS011;44439;47.924;10.198;2022-12-07T03:23:31;11.50;;;7.53;;
58669;SDS011;44439;47.924;10.198;2022-12-07T03:26:19;9.57;;;6.85;;
58669;SDS011;44439;47.924;10.198;2022-12-07T03:29:12;9.68;;;6.85;;
58669;SDS011;44439;47.924;10.198;2022-12-07T03:32:43;9.63;;;6.72;;
58669;SDS011;44439;47.924;10.198;2022-12-07T03:35:15;9.13;;;6.70;;
58669;SDS011;44439;47.924;10.198;2022-12-07T03:44:34;8.02;;;6.22;;
58669;SDS011;44439;47.924;10.198;2022-12-07T03:50:07;8.25;;;5.93;;
58669;SDS011;44439;47.924;10.198;2022-12-07T03:52:56;8.38;;;6.18;;
58669;SDS011;44439;47.924;10.198;2022-12-07T03:55:45;7.43;;;5.93;;
58669;SDS011;44439;47.924;10.198;2022-12-07T03:58:32;8.25;;;5.63;;
58669;SDS011;44439;47.924;10.198;2022-12-07T04:01:18;8.30;;;6.00;;
58669;SDS011;44439;47.924;10.198;2022-12-07T04:04:04;7.45;;;5.82;;
58669;SDS011;44439;47.924;10.198;2022-12-07T04:06:50;9.25;;;7.22;;
58669;SDS011;44439;47.924;10.198;2022-12-07T04:09:35;8.50;;;7.20;;
58669;SDS011;44439;47.924;10.198;2022-12-07T04:12:21;10.57;;;6.88;;
58669;SDS011;44439;47.924;10.198;2022-12-07T04:15:07;10.02;;;7.43;;
58669;SDS011;44439;47.924;10.198;2022-12-07T04:17:53;9.93;;;6.97;;
58669;SDS011;44439;47.924;10.198;2022-12-07T04:20:40;9.10;;;6.40;;
58669;SDS011;44439;47.924;10.198;2022-12-07T04:23:26;10.25;;;7.75;;
58669;SDS011;44439;47.924;10.198;2022-12-07T04:26:12;9.65;;;7.78;;
58669;SDS011;44439;47.924;10.198;2022-12-07T04:28:57;9.85;;;8.00;;
58669;SDS011;44439;47.924;10.198;2022-12-07T04:31:43;11.25;;;8.00;;
58669;SDS011;44439;47.924;10.198;2022-12-07T04:34:29;8.77;;;7.30;;
58669;SDS011;44439;47.924;10.198;2022-12-07T04:37:14;10.60;;;7.88;;
58669;SDS011;44439;47.924;10.198;2022-12-07T04:40:00;9.75;;;7.95;;
58669;SDS011;44439;47.924;10.198;2022-12-07T04:42:45;9.15;;;7.78;;
58669;SDS011;44439;47.924;10.198;2022-12-07T04:45:31;9.90;;;8.15;;
58669;SDS011;44439;47.924;10.198;2022-12-07T04:48:16;11.95;;;8.25;;
58669;SDS011;44439;47.924;10.198;2022-12-07T04:51:02;10.30;;;7.82;;
58669;SDS011;44439;47.924;10.198;2022-12-07T04:53:49;12.10;;;8.68;;
58669;SDS011;44439;47.924;10.198;2022-12-07T04:56:34;9.65;;;7.85;;
58669;SDS011;44439;47.924;10.198;2022-12-07T04:59:20;13.32;;;8.32;;
58669;SDS011;44439;47.924;10.198;2022-12-07T05:02:06;10.93;;;7.72;;
58669;SDS011;44439;47.924;10.198;2022-12-07T05:04:51;11.65;;;9.00;;
58669;SDS011;44439;47.924;10.198;2022-12-07T05:07:37;9.13;;;7.93;;
58669;SDS011;44439;47.924;10.198;2022-12-07T05:10:22;10.52;;;8.20;;
58669;SDS011;44439;47.924;10.198;2022-12-07T05:13:08;9.98;;;8.32;;
58669;SDS011;44439;47.924;10.198;2022-12-07T05:15:53;11.60;;;8.05;;
58669;SDS011;44439;47.924;10.198;2022-12-07T05:18:39;9.48;;;7.90;;
58669;SDS011;44439;47.924;10.198;2022-12-07T05:21:24;10.10;;;7.97;;
58669;SDS011;44439;47.924;10.198;2022-12-07T05:24:11;10.25;;;7.97;;
58669;SDS011;44439;47.924;10.198;2022-12-07T05:26:57;9.43;;;7.88;;
58669;SDS011;44439;47.924;10.198;2022-12-07T05:29:43;10.10;;;7.32;;
58669;SDS011;44439;47.924;10.198;2022-12-07T05:32:28;9.30;;;7.47;;
58669;SDS011;44439;47.924;10.198;2022-12-07T05:35:14;9.45;;;7.85;;
58669;SDS011;44439;47.924;10.198;2022-12-07T05:37:59;8.82;;;7.30;;
58669;SDS011;44439;47.924;10.198;2022-12-07T05:40:45;9.02;;;7.47;;
58669;SDS011;44439;47.924;10.198;2022-12-07T05:43:32;9.68;;;7.53;;
58669;SDS011;44439;47.924;10.198;2022-12-07T05:46:17;10.02;;;7.93;;
58669;SDS011;44439;47.924;10.198;2022-12-07T05:49:03;10.93;;;8.93;;
58669;SDS011;44439;47.924;10.198;2022-12-07T05:51:48;14.52;;;11.13;;
58669;SDS011;44439;47.924;10.198;2022-12-07T05:54:34;11.50;;;9.20;;
58669;SDS011;44439;47.924;10.198;2022-12-07T05:57:20;10.70;;;9.15;;
58669;SDS011;44439;47.924;10.198;2022-12-07T06:00:05;11.38;;;9.13;;
58669;SDS011;44439;47.924;10.198;2022-12-07T06:02:51;13.52;;;10.13;;
58669;SDS011;44439;47.924;10.198;2022-12-07T06:05:37;11.15;;;8.90;;
58669;SDS011;44439;47.924;10.198;2022-12-07T06:08:22;12.85;;;9.57;;
58669;SDS011;44439;47.924;10.198;2022-12-07T06:11:08;13.68;;;9.93;;
58669;SDS011;44439;47.924;10.198;2022-12-07T06:14:12;13.40;;;10.07;;
58669;SDS011;44439;47.924;10.198;2022-12-07T06:16:58;15.55;;;11.02;;
58669;SDS011;44439;47.924;10.198;2022-12-07T06:19:43;15.07;;;10.32;;
58669;SDS011;44439;47.924;10.198;2022-12-07T06:22:29;11.48;;;9.55;;
58669;SDS011;44439;47.924;10.198;2022-12-07T06:25:14;14.10;;;9.70;;
58669;SDS011;44439;47.924;10.198;2022-12-07T06:28:00;15.05;;;10.38;;
58669;SDS011;44439;47.924;10.198;2022-12-07T06:30:46;12.35;;;9.35;;
58669;SDS011;44439;47.924;10.198;2022-12-07T06:33:31;13.82;;;9.60;;
58669;SDS011;44439;47.924;10.198;2022-12-07T06:36:17;13.23;;;10.20;;
58669;SDS011;44439;47.924;10.198;2022-12-07T06:39:03;14.60;;;10.52;;
58669;SDS011;44439;47.924;10.198;2022-12-07T06:41:49;13.93;;;10.35;;
58669;SDS011;44439;47.924;10.198;2022-12-07T06:44:34;16.13;;;10.90;;
58669;SDS011;44439;47.924;10.198;2022-12-07T06:47:20;14.15;;;10.35;;
58669;SDS011;44439;47.924;10.198;2022-12-07T06:50:06;13.45;;;10.15;;
58669;SDS011;44439;47.924;10.198;2022-12-07T06:52:52;13.65;;;10.50;;
58669;SDS011;44439;47.924;10.198;2022-12-07T06:55:38;15.20;;;10.80;;
58669;SDS011;44439;47.924;10.198;2022-12-07T06:58:24;13.65;;;10.70;;
58669;SDS011;44439;47.924;10.198;2022-12-07T07:01:13;15.63;;;11.55;;
58669;SDS011;44439;47.924;10.198;2022-12-07T07:03:59;15.35;;;12.50;;
58669;SDS011;44439;47.924;10.198;2022-12-07T07:06:44;13.85;;;10.38;;
58669;SDS011;44439;47.924;10.198;2022-12-07T07:09:30;14.23;;;11.07;;
58669;SDS011;44439;47.924;10.198;2022-12-07T07:12:15;15.98;;;11.18;;
58669;SDS011;44439;47.924;10.198;2022-12-07T07:15:01;13.85;;;10.77;;
58669;SDS011;44439;47.924;10.198;2022-12-07T07:17:46;14.60;;;10.68;;
58669;SDS011;44439;47.924;10.198;2022-12-07T07:20:32;14.00;;;10.93;;
58669;SDS011;44439;47.924;10.198;2022-12-07T07:23:18;13.70;;;10.02;;
58669;SDS011;44439;47.924;10.198;2022-12-07T07:26:03;16.17;;;11.55;;
58669;SDS011;44439;47.924;10.198;2022-12-07T07:28:49;15.15;;;10.05;;
58669;SDS011;44439;47.924;10.198;2022-12-07T07:31:35;14.48;;;11.32;;
58669;SDS011;44439;47.924;10.198;2022-12-07T07:34:22;14.23;;;10.82;;
58669;SDS011;44439;47.924;10.198;2022-12-07T07:37:07;16.83;;;11.27;;
58669;SDS011;44439;47.924;10.198;2022-12-07T07:39:53;15.32;;;11.15;;
58669;SDS011;44439;47.924;10.198;2022-12-07T07:42:39;17.95;;;10.70;;
58669;SDS011;44439;47.924;10.198;2022-12-07T07:45:25;14.05;;;10.23;;
58669;SDS011;44439;47.924;10.198;2022-12-07T07:48:11;14.63;;;10.88;;
58669;SDS011;44439;47.924;10.198;2022-12-07T07:50:56;13.82;;;10.52;;
58669;SDS011;44439;47.924;10.198;2022-12-07T07:53:42;15.00;;;10.68;;
58669;SDS011;44439;47.924;10.198;2022-12-07T07:56:27;14.10;;;11.27;;
58669;SDS011;44439;47.924;10.198;2022-12-07T07:59:13;15.40;;;11.63;;
58669;SDS011;44439;47.924;10.198;2022-12-07T08:01:59;15.95;;;11.73;;
58669;SDS011;44439;47.924;10.198;2022-12-07T08:04:45;13.20;;;10.05;;
58669;SDS011;44439;47.924;10.198;2022-12-07T08:07:31;15.10;;;10.35;;
58669;SDS011;44439;47.924;10.198;2022-12-07T08:10:16;15.13;;;11.50;;
58669;SDS011;44439;47.924;10.198;2022-12-07T08:13:02;14.32;;;10.93;;
58669;SDS011;44439;47.924;10.198;2022-12-07T08:15:58;15.80;;;10.88;;
58669;SDS011;44439;47.924;10.198;2022-12-07T08:18:48;14.63;;;10.77;;
58669;SDS011;44439;47.924;10.198;2022-12-07T08:21:33;15.60;;;11.43;;
58669;SDS011;44439;47.924;10.198;2022-12-07T08:24:19;20.63;;;13.98;;
58669;SDS011;44439;47.924;10.198;2022-12-07T08:27:04;22.73;;;16.45;;
58669;SDS011;44439;47.924;10.198;2022-12-07T08:29:50;22.67;;;17.02;;
58669;SDS011;44439;47.924;10.198;2022-12-07T08:32:36;24.13;;;15.77;;
58669;SDS011;44439;47.924;10.198;2022-12-07T08:35:21;23.30;;;16.38;;
58669;SDS011;44439;47.924;10.198;2022-12-07T08:38:07;23.60;;;16.17;;
58669;SDS011;44439;47.924;10.198;2022-12-07T08:40:53;20.42;;;14.77;;
58669;SDS011;44439;47.924;10.198;2022-12-07T08:43:39;17.75;;;12.57;;
58669;SDS011;44439;47.924;10.198;2022-12-07T08:46:26;15.93;;;12.25;;
58669;SDS011;44439;47.924;10.198;2022-12-07T08:49:18;15.95;;;11.65;;
58669;SDS011;44439;47.924;10.198;2022-12-07T08:52:05;15.30;;;11.65;;
58669;SDS011;44439;47.924;10.198;2022-12-07T08:54:51;16.92;;;11.80;;
58669;SDS011;44439;47.924;10.198;2022-12-07T08:57:36;18.90;;;12.95;;
58669;SDS011;44439;47.924;10.198;2022-12-07T09:00:22;18.23;;;12.75;;
58669;SDS011;44439;47.924;10.198;2022-12-07T09:03:08;18.80;;;12.80;;
58669;SDS011;44439;47.924;10.198;2022-12-07T09:05:53;14.68;;;11.10;;
58669;SDS011;44439;47.924;10.198;2022-12-07T09:08:41;15.00;;;10.70;;
58669;SDS011;44439;47.924;10.198;2022-12-07T09:11:27;15.23;;;11.80;;
58669;SDS011;44439;47.924;10.198;2022-12-07T09:14:13;13.95;;;11.30;;
58669;SDS011;44439;47.924;10.198;2022-12-07T09:17:09;14.32;;;10.98;;
58669;SDS011;44439;47.924;10.198;2022-12-07T09:19:54;14.80;;;11.32;;
58669;SDS011;44439;47.924;10.198;2022-12-07T09:22:40;15.55;;;10.95;;
58669;SDS011;44439;47.924;10.198;2022-12-07T09:25:26;16.98;;;12.27;;
58669;SDS011;44439;47.924;10.198;2022-12-07T09:28:11;18.95;;;11.93;;
58669;SDS011;44439;47.924;10.198;2022-12-07T09:30:57;16.20;;;11.70;;
58669;SDS011;44439;47.924;10.198;2022-12-07T09:33:42;22.73;;;16.42;;
58669;SDS011;44439;47.924;10.198;2022-12-07T09:36:29;16.02;;;11.25;;
58669;SDS011;44439;47.924;10.198;2022-12-07T09:39:15;18.80;;;12.82;;
58669;SDS011;44439;47.924;10.198;2022-12-07T09:42:02;15.80;;;12.38;;
58669;SDS011;44439;47.924;10.198;2022-12-07T09:44:48;14.45;;;10.45;;
58669;SDS011;44439;47.924;10.198;2022-12-07T09:47:34;14.10;;;10.40;;
58669;SDS011;44439;47.924;10.198;2022-12-07T09:50:20;15.38;;;10.90;;
58669;SDS011;44439;47.924;10.198;2022-12-07T09:53:13;13.88;;;9.98;;
58669;SDS011;44439;47.924;10.198;2022-12-07T09:56:00;13.20;;;10.70;;
58669;SDS011;44439;47.924;10.198;2022-12-07T09:58:46;16.27;;;12.10;;
58669;SDS011;44439;47.924;10.198;2022-12-07T10:01:32;14.20;;;10.95;;
58669;SDS011;44439;47.924;10.198;2022-12-07T10:04:22;13.88;;;10.27;;
58669;SDS011;44439;47.924;10.198;2022-12-07T10:07:09;15.23;;;11.23;;
58669;SDS011;44439;47.924;10.198;2022-12-07T10:09:54;14.63;;;11.05;;
58669;SDS011;44439;47.924;10.198;2022-12-07T10:12:59;13.32;;;10.82;;
58669;SDS011;44439;47.924;10.198;2022-12-07T10:15:47;14.50;;;10.35;;
58669;SDS011;44439;47.924;10.198;2022-12-07T10:18:36;15.60;;;11.70;;
58669;SDS011;44439;47.924;10.198;2022-12-07T10:21:23;15.57;;;11.50;;
58669;SDS011;44439;47.924;10.198;2022-12-07T10:26:55;14.80;;;10.57;;
58669;SDS011;44439;47.924;10.198;2022-12-07T10:29:41;14.43;;;10.75;;
58669;SDS011;44439;47.924;10.198;2022-12-07T10:32:33;14.23;;;10.68;;
58669;SDS011;44439;47.924;10.198;2022-12-07T10:38:07;12.88;;;10.20;;
58669;SDS011;44439;47.924;10.198;2022-12-07T10:41:07;11.85;;;9.38;;
58669;SDS011;44439;47.924;10.198;2022-12-07T10:43:53;12.18;;;9.30;;
58669;SDS011;44439;47.924;10.198;2022-12-07T10:46:43;11.50;;;8.68;;
58669;SDS011;44439;47.924;10.198;2022-12-07T10:52:43;10.98;;;8.90;;
58669;SDS011;44439;47.924;10.198;2022-12-07T11:01:40;13.15;;;8.88;;
58669;SDS011;44439;47.924;10.198;2022-12-07T11:13:22;11.57;;;9.10;;
58669;SDS011;44439;47.924;10.198;2022-12-07T11:16:19;10.68;;;8.32;;
58669;SDS011;44439;47.924;10.198;2022-12-07T11:22:13;11.20;;;9.07;;
58669;SDS011;44439;47.924;10.198;2022-12-07T11:30:53;10.60;;;8.25;;
58669;SDS011;44439;47.924;10.198;2022-12-07T11:33:46;10.27;;;8.45;;
58669;SDS011;44439;47.924;10.198;2022-12-07T11:36:41;11.17;;;9.20;;
58669;SDS011;44439;47.924;10.198;2022-12-07T11:39:30;11.57;;;9.57;;
58669;SDS011;44439;47.924;10.198;2022-12-07T11:42:25;10.23;;;8.63;;
58669;SDS011;44439;47.924;10.198;2022-12-07T11:45:15;10.32;;;8.18;;
58669;SDS011;44439;47.924;10.198;2022-12-07T11:50:50;11.07;;;8.13;;
58669;SDS011;44439;47.924;10.198;2022-12-07T11:53:56;10.88;;;8.77;;
58669;SDS011;44439;47.924;10.198;2022-12-07T11:56:43;10.65;;;8.80;;
58669;SDS011;44439;47.924;10.198;2022-12-07T11:59:31;11.65;;;9.15;;
58669;SDS011;44439;47.924;10.198;2022-12-07T12:02:38;12.20;;;9.40;;
58669;SDS011;44439;47.924;10.198;2022-12-07T12:05:27;11.48;;;8.30;;
58669;SDS011;44439;47.924;10.198;2022-12-07T12:08:15;10.85;;;8.63;;
58669;SDS011;44439;47.924;10.198;2022-12-07T12:20:13;12.23;;;9.55;;
58669;SDS011;44439;47.924;10.198;2022-12-07T12:23:10;11.82;;;9.25;;
58669;SDS011;44439;47.924;10.198;2022-12-07T12:25:59;12.70;;;9.57;;
58669;SDS011;44439;47.924;10.198;2022-12-07T12:31:40;12.85;;;9.82;;
58669;SDS011;44439;47.924;10.198;2022-12-07T12:43:58;15.45;;;10.65;;
58669;SDS011;44439;47.924;10.198;2022-12-07T12:55:00;12.23;;;9.68;;
58669;SDS011;44439;47.924;10.198;2022-12-07T12:57:48;12.90;;;9.52;;
58669;SDS011;44439;47.924;10.198;2022-12-07T13:01:31;14.05;;;10.15;;
58669;SDS011;44439;47.924;10.198;2022-12-07T13:04:02;12.70;;;9.00;;
58669;SDS011;44439;47.924;10.198;2022-12-07T13:06:48;11.90;;;9.52;;
58669;SDS011;44439;47.924;10.198;2022-12-07T13:09:34;11.52;;;8.90;;
58669;SDS011;44439;47.924;10.198;2022-12-07T13:12:20;12.27;;;9.50;;
58669;SDS011;44439;47.924;10.198;2022-12-07T13:15:22;11.48;;;9.50;;
58669;SDS011;44439;47.924;10.198;2022-12-07T13:23:58;13.95;;;10.90;;
58669;SDS011;44439;47.924;10.198;2022-12-07T13:26:44;15.35;;;11.45;;
58669;SDS011;44439;47.924;10.198;2022-12-07T13:29:30;17.58;;;12.65;;
58669;SDS011;44439;47.924;10.198;2022-12-07T13:32:30;14.15;;;10.73;;
58669;SDS011;44439;47.924;10.198;2022-12-07T13:35:35;12.82;;;9.68;;
58669;SDS011;44439;47.924;10.198;2022-12-07T13:38:32;11.85;;;9.43;;
58669;SDS011;44439;47.924;10.198;2022-12-07T13:41:18;21.67;;;13.52;;
58669;SDS011;44439;47.924;10.198;2022-12-07T13:44:13;19.60;;;14.10;;
58669;SDS011;44439;47.924;10.198;2022-12-07T13:49:49;28.38;;;18.08;;
58669;SDS011;44439;47.924;10.198;2022-12-07T13:52:39;67.10;;;38.40;;
58669;SDS011;44439;47.924;10.198;2022-12-07T13:55:28;57.72;;;33.28;;
58669;SDS011;44439;47.924;10.198;2022-12-07T13:58:14;26.67;;;18.00;;
58669;SDS011;44439;47.924;10.198;2022-12-07T14:01:00;15.07;;;12.15;;
58669;SDS011;44439;47.924;10.198;2022-12-07T14:03:45;12.45;;;10.38;;
58669;SDS011;44439;47.924;10.198;2022-12-07T14:06:31;15.90;;;11.88;;
58669;SDS011;44439;47.924;10.198;2022-12-07T14:09:18;18.92;;;15.13;;
58669;SDS011;44439;47.924;10.198;2022-12-07T14:12:05;16.08;;;11.77;;
58669;SDS011;44439;47.924;10.198;2022-12-07T14:14:51;10.23;;;8.77;;
58669;SDS011;44439;47.924;10.198;2022-12-07T14:17:36;22.27;;;17.65;;
58669;SDS011;44439;47.924;10.198;2022-12-07T14:20:38;12.98;;;11.52;;
58669;SDS011;44439;47.924;10.198;2022-12-07T14:23:27;12.57;;;10.63;;
58669;SDS011;44439;47.924;10.198;2022-12-07T14:32:24;15.85;;;11.63;;
58669;SDS011;44439;47.924;10.198;2022-12-07T14:35:14;24.23;;;14.55;;
58669;SDS011;44439;47.924;10.198;2022-12-07T14:38:00;23.48;;;13.10;;
58669;SDS011;44439;47.924;10.198;2022-12-07T14:40:45;13.93;;;9.38;;
58669;SDS011;44439;47.924;10.198;2022-12-07T14:43:31;10.85;;;8.73;;
58669;SDS011;44439;47.924;10.198;2022-12-07T14:46:17;13.52;;;9.65;;
58669;SDS011;44439;47.924;10.198;2022-12-07T14:49:05;12.85;;;10.02;;
58669;SDS011;44439;47.924;10.198;2022-12-07T14:51:51;11.85;;;9.00;;
58669;SDS011;44439;47.924;10.198;2022-12-07T14:54:37;17.75;;;11.73;;
58669;SDS011;44439;47.924;10.198;2022-12-07T14:57:23;30.80;;;18.02;;
58669;SDS011;44439;47.924;10.198;2022-12-07T15:00:09;42.42;;;22.80;;
58669;SDS011;44439;47.924;10.198;2022-12-07T15:02:58;16.75;;;12.02;;
58669;SDS011;44439;47.924;10.198;2022-12-07T15:05:44;15.98;;;11.00;;
58669;SDS011;44439;47.924;10.198;2022-12-07T15:08:30;14.63;;;10.80;;
58669;SDS011;44439;47.924;10.198;2022-12-07T15:11:16;12.35;;;9.35;;
58669;SDS011;44439;47.924;10.198;2022-12-07T15:14:02;12.60;;;10.40;;
58669;SDS011;44439;47.924;10.198;2022-12-07T15:16:53;17.63;;;13.05;;
58669;SDS011;44439;47.924;10.198;2022-12-07T15:19:39;25.83;;;19.48;;
58669;SDS011;44439;47.924;10.198;2022-12-07T15:22:25;27.20;;;18.20;;
58669;SDS011;44439;47.924;10.198;2022-12-07T15:25:13;15.27;;;12.00;;
58669;SDS011;44439;47.924;10.198;2022-12-07T15:28:02;14.52;;;12.32;;
58669;SDS011;44439;47.924;10.198;2022-12-07T15:30:47;17.23;;;13.05;;
58669;SDS011;44439;47.924;10.198;2022-12-07T15:33:33;15.38;;;11.25;;
58669;SDS011;44439;47.924;10.198;2022-12-07T15:36:20;12.90;;;10.07;;
58669;SDS011;44439;47.924;10.198;2022-12-07T15:39:06;14.85;;;10.90;;
58669;SDS011;44439;47.924;10.198;2022-12-07T15:41:52;18.98;;;12.00;;
58669;SDS011;44439;47.924;10.198;2022-12-07T15:44:37;16.48;;;10.93;;
58669;SDS011;44439;47.924;10.198;2022-12-07T15:47:43;23.92;;;15.38;;
58669;SDS011;44439;47.924;10.198;2022-12-07T15:50:28;24.42;;;15.88;;
58669;SDS011;44439;47.924;10.198;2022-12-07T15:53:14;25.73;;;17.25;;
58669;SDS011;44439;47.924;10.198;2022-12-07T15:56:00;35.10;;;20.63;;
58669;SDS011;44439;47.924;10.198;2022-12-07T15:58:46;23.40;;;17.05;;
58669;SDS011;44439;47.924;10.198;2022-12-07T16:01:32;20.95;;;14.63;;
58669;SDS011;44439;47.924;10.198;2022-12-07T16:04:17;20.25;;;14.68;;
58669;SDS011;44439;47.924;10.198;2022-12-07T16:07:03;30.48;;;24.23;;
58669;SDS011;44439;47.924;10.198;2022-12-07T16:09:49;26.42;;;21.33;;
58669;SDS011;44439;47.924;10.198;2022-12-07T16:12:34;25.60;;;19.45;;
58669;SDS011;44439;47.924;10.198;2022-12-07T16:15:20;23.13;;;17.92;;
58669;SDS011;44439;47.924;10.198;2022-12-07T16:18:06;22.52;;;17.60;;
58669;SDS011;44439;47.924;10.198;2022-12-07T16:20:51;18.48;;;14.60;;
58669;SDS011;44439;47.924;10.198;2022-12-07T16:23:37;16.23;;;13.00;;
58669;SDS011;44439;47.924;10.198;2022-12-07T16:26:22;15.45;;;13.35;;
58669;SDS011;44439;47.924;10.198;2022-12-07T16:29:10;13.52;;;10.23;;
58669;SDS011;44439;47.924;10.198;2022-12-07T16:31:56;11.57;;;9.38;;
58669;SDS011;44439;47.924;10.198;2022-12-07T16:34:41;14.05;;;12.05;;
58669;SDS011;44439;47.924;10.198;2022-12-07T16:37:27;23.63;;;18.80;;
58669;SDS011;44439;47.924;10.198;2022-12-07T16:40:12;22.20;;;17.52;;
58669;SDS011;44439;47.924;10.198;2022-12-07T16:42:58;16.98;;;14.65;;
58669;SDS011;44439;47.924;10.198;2022-12-07T16:45:45;16.17;;;11.85;;
58669;SDS011;44439;47.924;10.198;2022-12-07T16:48:30;16.35;;;12.93;;
58669;SDS011;44439;47.924;10.198;2022-12-07T16:51:16;20.40;;;14.70;;
58669;SDS011;44439;47.924;10.198;2022-12-07T16:54:02;17.70;;;13.50;;
58669;SDS011;44439;47.924;10.198;2022-12-07T16:56:47;19.02;;;14.93;;
58669;SDS011;44439;47.924;10.198;2022-12-07T16:59:33;22.88;;;17.67;;
58669;SDS011;44439;47.924;10.198;2022-12-07T17:02:18;23.85;;;18.77;;
58669;SDS011;44439;47.924;10.198;2022-12-07T17:05:04;38.95;;;23.30;;
58669;SDS011;44439;47.924;10.198;2022-12-07T17:07:49;23.27;;;17.10;;
58669;SDS011;44439;47.924;10.198;2022-12-07T17:10:36;21.42;;;16.98;;
58669;SDS011;44439;47.924;10.198;2022-12-07T17:13:22;19.55;;;17.45;;
58669;SDS011;44439;47.924;10.198;2022-12-07T17:16:26;22.13;;;19.15;;
58669;SDS011;44439;47.924;10.198;2022-12-07T17:19:13;20.88;;;17.55;;
58669;SDS011;44439;47.924;10.198;2022-12-07T17:21:58;16.73;;;14.65;;
58669;SDS011;44439;47.924;10.198;2022-12-07T17:24:44;15.70;;;13.45;;
58669;SDS011;44439;47.924;10.198;2022-12-07T17:27:30;15.43;;;12.73;;
58669;SDS011;44439;47.924;10.198;2022-12-07T17:30:15;17.00;;;14.50;;
58669;SDS011;44439;47.924;10.198;2022-12-07T17:33:01;19.17;;;13.38;;
58669;SDS011;44439;47.924;10.198;2022-12-07T17:35:47;27.88;;;20.50;;
58669;SDS011;44439;47.924;10.198;2022-12-07T17:38:33;69.60;;;45.42;;
58669;SDS011;44439;47.924;10.198;2022-12-07T17:41:19;27.63;;;21.05;;
58669;SDS011;44439;47.924;10.198;2022-12-07T17:44:24;17.75;;;14.23;;
58669;SDS011;44439;47.924;10.198;2022-12-07T17:47:10;17.70;;;13.88;;
58669;SDS011;44439;47.924;10.198;2022-12-07T17:49:55;35.15;;;28.15;;
58669;SDS011;44439;47.924;10.198;2022-12-07T17:52:41;30.42;;;25.38;;